createdAt,value
2023-03-01T00:01:26.590Z,6.90
2023-03-01T00:03:55.982Z,6.90
2023-03-01T00:06:24.032Z,6.90
2023-03-01T00:08:52.177Z,6.90
2023-03-01T00:11:21.477Z,6.90
2023-03-01T00:13:52.025Z,6.90
2023-03-01T00:16:27.716Z,6.90
2023-03-01T00:18:56.602Z,7.00
2023-03-01T00:21:25.048Z,7.00
2023-03-01T00:23:53.733Z,6.90
2023-03-01T00:26:23.801Z,6.80
2023-03-01T00:28:52.226Z,6.80
2023-03-01T00:31:25.710Z,6.80
2023-03-01T00:33:58.785Z,6.70
2023-03-01T00:36:29.088Z,6.70
2023-03-01T00:38:58.061Z,6.70
2023-03-01T00:41:27.905Z,6.60
2023-03-01T00:43:56.353Z,6.60
2023-03-01T00:46:27.117Z,6.50
2023-03-01T00:48:55.318Z,6.40
2023-03-01T00:51:26.104Z,6.40
2023-03-01T00:53:56.177Z,6.40
2023-03-01T00:56:24.829Z,6.50
2023-03-01T00:58:52.610Z,6.50
2023-03-01T01:01:23.337Z,6.40
2023-03-01T01:04:17.453Z,6.30
2023-03-01T01:06:47.157Z,6.30
2023-03-01T01:09:20.714Z,6.40
2023-03-01T01:11:51.027Z,6.30
2023-03-01T01:14:20.278Z,6.30
2023-03-01T01:16:48.081Z,6.20
2023-03-01T01:19:16.557Z,6.10
2023-03-01T01:21:44.371Z,6.10
2023-03-01T01:24:12.925Z,6.10
2023-03-01T01:26:41.350Z,6.10
2023-03-01T01:29:09.550Z,6.00
2023-03-01T01:31:39.229Z,6.00
2023-03-01T01:34:08.946Z,6.00
2023-03-01T01:36:37.066Z,6.00
2023-03-01T01:39:05.555Z,5.80
2023-03-01T01:41:34.081Z,5.70
2023-03-01T01:44:26.939Z,5.60
2023-03-01T01:47:05.275Z,5.50
2023-03-01T01:49:47.135Z,5.50
2023-03-01T01:52:35.549Z,5.50
2023-03-01T01:55:11.549Z,5.50
2023-03-01T01:57:45.885Z,5.50
2023-03-01T02:00:15.683Z,5.40
2023-03-01T02:02:47.722Z,5.40
2023-03-01T02:05:55.536Z,5.50
2023-03-01T02:08:27.640Z,5.50
2023-03-01T02:10:57.038Z,5.60
2023-03-01T02:13:25.215Z,5.60
2023-03-01T02:15:53.185Z,5.70
2023-03-01T02:18:24.649Z,5.70
2023-03-01T02:21:23.567Z,5.80
2023-03-01T02:23:52.431Z,5.90
2023-03-01T02:26:41.146Z,5.80
2023-03-01T02:29:09.426Z,5.80
2023-03-01T02:31:42.975Z,5.90
2023-03-01T02:34:16.982Z,5.90
2023-03-01T02:36:56.644Z,5.70
2023-03-01T02:39:35.536Z,5.60
2023-03-01T02:42:05.255Z,5.60
2023-03-01T02:44:33.161Z,5.70
2023-03-01T02:47:03.543Z,5.80
2023-03-01T02:49:35.728Z,5.90
2023-03-01T02:52:28.120Z,5.90
2023-03-01T02:55:10.408Z,5.90
2023-03-01T02:57:41.257Z,6.00
2023-03-01T03:00:22.081Z,6.10
2023-03-01T03:02:52.100Z,6.20
2023-03-01T03:05:24.137Z,6.20
2023-03-01T03:07:55.326Z,6.20
2023-03-01T03:10:28.355Z,6.20
2023-03-01T03:13:04.759Z,6.20
2023-03-01T03:15:33.805Z,6.10
2023-03-01T03:18:01.714Z,6.00
2023-03-01T03:20:29.913Z,5.80
2023-03-01T03:23:01.960Z,5.80
2023-03-01T03:25:30.823Z,5.70
2023-03-01T03:27:59.214Z,5.60
2023-03-01T03:30:30.990Z,5.60
2023-03-01T03:32:59.969Z,5.60
2023-03-01T03:35:50.564Z,5.60
2023-03-01T03:38:23.078Z,5.60
2023-03-01T03:41:06.032Z,5.60
2023-03-01T03:43:36.774Z,5.60
2023-03-01T03:46:06.909Z,5.60
2023-03-01T03:48:37.035Z,5.70
2023-03-01T03:51:07.976Z,5.80
2023-03-01T03:53:35.852Z,5.80
2023-03-01T03:56:04.767Z,5.70
2023-03-01T03:58:33.847Z,5.60
2023-03-01T04:01:04.751Z,5.60
2023-03-01T04:03:33.514Z,5.40
2023-03-01T04:06:01.969Z,5.40
2023-03-01T04:08:30.057Z,5.40
2023-03-01T04:11:25.418Z,5.40
2023-03-01T04:13:55.369Z,5.40
2023-03-01T04:16:23.773Z,5.40
2023-03-01T04:18:51.890Z,5.30
2023-03-01T04:21:21.450Z,5.20
2023-03-01T04:23:49.565Z,5.10
2023-03-01T04:26:17.376Z,5.10
2023-03-01T04:28:46.936Z,5.20
2023-03-01T04:31:22.238Z,5.20
2023-03-01T04:33:56.103Z,5.10
2023-03-01T04:36:27.887Z,5.00
2023-03-01T04:38:56.827Z,5.00
2023-03-01T04:41:25.955Z,5.10
2023-03-01T04:43:53.753Z,5.20
2023-03-01T04:46:23.163Z,5.40
2023-03-01T04:48:51.063Z,5.40
2023-03-01T04:51:19.596Z,5.40
2023-03-01T04:53:47.570Z,5.30
2023-03-01T04:56:16.068Z,5.40
2023-03-01T04:58:43.849Z,5.40
2023-03-01T05:01:16.750Z,5.40
2023-03-01T05:03:46.440Z,5.40
2023-03-01T05:06:15.189Z,5.40
2023-03-01T05:08:43.933Z,5.30
2023-03-01T05:11:12.912Z,5.40
2023-03-01T05:13:41.581Z,5.30
2023-03-01T05:16:13.362Z,5.40
2023-03-01T05:18:42.551Z,5.30
2023-03-01T05:21:17.399Z,5.30
2023-03-01T05:23:45.977Z,5.50
2023-03-01T05:26:28.239Z,5.60
2023-03-01T05:29:00.422Z,5.70
2023-03-01T05:31:29.154Z,5.80
2023-03-01T05:33:57.038Z,5.90
2023-03-01T05:36:24.712Z,5.90
2023-03-01T05:38:52.902Z,5.90
2023-03-01T05:41:20.691Z,5.70
2023-03-01T05:43:48.444Z,5.70
2023-03-01T05:46:16.488Z,5.80
2023-03-01T05:48:44.890Z,5.80
2023-03-01T05:51:13.254Z,5.90
2023-03-01T05:53:41.475Z,5.90
2023-03-01T05:56:09.353Z,5.80
2023-03-01T05:58:39.792Z,5.50
2023-03-01T06:01:11.975Z,5.50
2023-03-01T06:03:39.635Z,5.50
2023-03-01T06:06:09.120Z,5.50
2023-03-01T06:08:36.906Z,5.60
2023-03-01T06:11:04.846Z,5.60
2023-03-01T06:13:32.560Z,5.70
2023-03-01T06:16:00.293Z,5.80
2023-03-01T06:18:28.038Z,5.90
2023-03-01T06:20:57.164Z,6.10
2023-03-01T06:23:25.491Z,6.20
2023-03-01T06:25:54.066Z,6.30
2023-03-01T06:28:22.621Z,6.30
2023-03-01T06:30:52.873Z,6.40
2023-03-01T06:33:25.431Z,6.40
2023-03-01T06:35:56.074Z,6.40
2023-03-01T06:38:25.252Z,6.50
2023-03-01T06:40:58.101Z,6.50
2023-03-01T06:43:25.849Z,6.50
2023-03-01T06:45:53.539Z,6.40
2023-03-01T06:48:21.256Z,6.40
2023-03-01T06:50:48.973Z,6.40
2023-03-01T06:53:16.899Z,6.30
2023-03-01T06:55:44.586Z,6.20
2023-03-01T06:58:12.491Z,6.40
2023-03-01T07:00:42.033Z,6.50
2023-03-01T07:03:10.275Z,6.50
2023-03-01T07:05:38.072Z,6.40
2023-03-01T07:08:05.820Z,6.40
2023-03-01T07:10:34.111Z,6.30
2023-03-01T07:13:02.136Z,6.40
2023-03-01T07:15:30.158Z,6.60
2023-03-01T07:17:58.416Z,6.60
2023-03-01T07:20:26.865Z,6.60
2023-03-01T07:22:56.180Z,6.70
2023-03-01T07:25:24.157Z,6.80
2023-03-01T07:27:55.750Z,6.70
2023-03-01T07:30:27.140Z,6.80
2023-03-01T07:32:56.511Z,6.70
2023-03-01T07:35:26.648Z,6.80
2023-03-01T07:37:54.706Z,6.80
2023-03-01T07:40:22.725Z,6.70
2023-03-01T07:42:50.670Z,6.70
2023-03-01T07:45:18.474Z,6.80
2023-03-01T07:47:46.264Z,6.80
2023-03-01T07:50:14.921Z,6.80
2023-03-01T07:52:43.012Z,6.80
2023-03-01T07:55:11.158Z,6.70
2023-03-01T07:57:39.930Z,6.90
2023-03-01T08:00:11.276Z,6.90
2023-03-01T08:02:43.173Z,7.00
2023-03-01T08:05:11.412Z,7.00
2023-03-01T08:07:39.284Z,7.10
2023-03-01T08:10:07.735Z,7.20
2023-03-01T08:12:35.408Z,7.20
2023-03-01T08:15:03.260Z,7.20
2023-03-01T08:17:31.009Z,7.20
2023-03-01T08:19:58.725Z,7.30
2023-03-01T08:22:26.546Z,7.40
2023-03-01T08:24:56.863Z,7.50
2023-03-01T08:27:24.693Z,7.60
2023-03-01T08:29:53.465Z,7.70
2023-03-01T08:32:21.894Z,7.70
2023-03-01T08:34:49.777Z,7.90
2023-03-01T08:37:18.161Z,7.80
2023-03-01T08:39:46.052Z,7.80
2023-03-01T08:42:14.171Z,7.70
2023-03-01T08:44:43.402Z,7.70
2023-03-01T08:47:12.331Z,7.70
2023-03-01T08:49:40.084Z,7.70
2023-03-01T08:52:07.820Z,7.70
2023-03-01T08:54:35.610Z,7.70
2023-03-01T08:57:04.028Z,7.80
2023-03-01T08:59:36.783Z,8.00
2023-03-01T09:02:07.122Z,8.00
2023-03-01T09:04:35.025Z,8.10
2023-03-01T09:07:02.681Z,8.10
2023-03-01T09:09:30.443Z,8.10
2023-03-01T09:11:58.601Z,8.20
2023-03-01T09:14:27.803Z,8.30
2023-03-01T09:16:55.827Z,8.30
2023-03-01T09:19:25.689Z,8.30
2023-03-01T09:21:54.222Z,8.30
2023-03-01T09:24:23.952Z,8.30
2023-03-01T09:26:55.272Z,8.20
2023-03-01T09:29:23.596Z,8.20
2023-03-01T09:31:51.457Z,8.30
2023-03-01T09:34:24.271Z,8.20
2023-03-01T09:36:52.656Z,8.20
2023-03-01T09:39:21.702Z,8.30
2023-03-01T09:42:05.498Z,8.40
2023-03-01T09:45:16.208Z,8.50
2023-03-01T09:47:44.005Z,8.60
2023-03-01T09:50:13.630Z,8.70
2023-03-01T09:52:44.662Z,8.80
2023-03-01T09:55:16.387Z,8.80
2023-03-01T09:57:56.219Z,8.80
2023-03-01T10:00:48.564Z,8.90
2023-03-01T10:03:27.349Z,9.00
2023-03-01T10:06:02.925Z,8.90
2023-03-01T10:08:42.996Z,8.80
2023-03-01T10:11:29.729Z,8.90
2023-03-01T10:14:33.889Z,9.10
2023-03-01T10:17:10.880Z,9.10
2023-03-01T10:19:46.840Z,9.00
2023-03-01T10:22:29.669Z,9.00
2023-03-01T10:25:00.955Z,9.00
2023-03-01T10:28:03.097Z,9.00
2023-03-01T10:30:43.163Z,9.00
2023-03-01T10:33:33.302Z,9.30
2023-03-01T10:36:01.404Z,9.40
2023-03-01T10:38:47.697Z,9.50
2023-03-01T10:41:15.606Z,9.50
2023-03-01T10:43:52.989Z,9.60
2023-03-01T10:46:36.026Z,9.70
2023-03-01T10:49:19.895Z,9.80
2023-03-01T10:51:51.325Z,9.80
2023-03-01T10:54:32.831Z,9.70
2023-03-01T10:57:05.816Z,9.70
2023-03-01T10:59:36.931Z,9.70
2023-03-01T11:02:25.430Z,9.80
2023-03-01T11:05:00.743Z,10.10
2023-03-01T11:07:28.876Z,10.20
2023-03-01T11:09:56.747Z,10.30
2023-03-01T11:12:26.934Z,10.20
2023-03-01T11:14:56.523Z,10.20
2023-03-01T11:17:34.692Z,10.10
2023-03-01T11:20:29.196Z,10.10
2023-03-01T11:23:15.453Z,10.10
2023-03-01T11:25:58.602Z,10.10
2023-03-01T11:28:28.553Z,10.00
2023-03-01T11:31:08.822Z,9.90
2023-03-01T11:34:11.272Z,9.90
2023-03-01T11:36:56.180Z,10.00
2023-03-01T11:39:45.262Z,10.00
2023-03-01T11:42:35.227Z,10.20
2023-03-01T11:45:10.964Z,10.10
2023-03-01T11:48:08.442Z,10.10
2023-03-01T11:50:47.090Z,10.20
2023-03-01T11:53:27.279Z,10.30
2023-03-01T11:56:04.971Z,10.40
2023-03-01T11:58:47.655Z,10.50
2023-03-01T12:01:40.307Z,10.60
2023-03-01T12:04:27.669Z,10.60
2023-03-01T12:07:02.791Z,10.60
2023-03-01T12:09:52.819Z,10.60
2023-03-01T12:12:57.467Z,10.60
2023-03-01T12:15:58.786Z,10.50
2023-03-01T12:18:38.654Z,10.50
2023-03-01T12:21:43.544Z,10.50
2023-03-01T12:24:54.204Z,10.50
2023-03-01T12:27:54.729Z,10.40
2023-03-01T12:30:52.976Z,10.40
2023-03-01T12:33:46.617Z,10.40
2023-03-01T12:36:36.095Z,10.30
2023-03-01T12:39:28.402Z,10.20
2023-03-01T12:42:06.657Z,10.20
2023-03-01T12:44:54.620Z,10.10
2023-03-01T12:47:41.154Z,10.10
2023-03-01T12:50:42.641Z,10.00
2023-03-01T12:53:31.085Z,10.00
2023-03-01T12:56:07.070Z,10.00
2023-03-01T12:58:49.666Z,10.00
2023-03-01T13:01:36.474Z,10.10
2023-03-01T13:04:12.161Z,10.20
2023-03-01T13:07:01.535Z,10.10
2023-03-01T13:09:48.809Z,10.10
2023-03-01T13:12:50.753Z,10.10
2023-03-01T13:15:25.301Z,10.10
2023-03-01T13:18:00.387Z,10.10
2023-03-01T13:20:47.007Z,10.10
2023-03-01T13:23:20.799Z,10.00
2023-03-01T13:26:06.738Z,9.90
2023-03-01T13:28:47.633Z,9.90
2023-03-01T13:31:21.290Z,9.80
2023-03-01T13:33:56.009Z,9.70
2023-03-01T13:36:30.630Z,9.50
2023-03-01T13:39:00.907Z,9.40
2023-03-01T13:41:43.606Z,9.20
2023-03-01T13:44:48.575Z,9.30
2023-03-01T13:47:19.006Z,9.30
2023-03-01T13:49:59.550Z,9.30
2023-03-01T13:52:47.609Z,9.40
2023-03-01T13:55:18.357Z,9.40
2023-03-01T13:57:58.840Z,9.40
2023-03-01T14:00:28.751Z,9.40
2023-03-01T14:03:06.398Z,9.20
2023-03-01T14:05:35.269Z,9.10
2023-03-01T14:08:05.067Z,8.90
2023-03-01T14:11:05.992Z,8.80
2023-03-01T14:13:44.192Z,8.60
2023-03-01T14:16:30.376Z,8.50
2023-03-01T14:19:32.621Z,8.50
2023-03-01T14:22:26.328Z,8.40
2023-03-01T14:24:56.058Z,8.40
2023-03-01T14:27:31.219Z,8.40
2023-03-01T14:30:02.046Z,8.30
2023-03-01T14:32:32.516Z,8.40
2023-03-01T14:35:01.589Z,8.50
2023-03-01T14:37:34.749Z,8.50
2023-03-01T14:40:05.260Z,8.60
2023-03-01T14:42:37.272Z,8.60
2023-03-01T14:45:07.537Z,8.60
2023-03-01T14:47:37.355Z,8.50
2023-03-01T14:50:29.024Z,8.60
2023-03-01T14:53:00.712Z,8.70
2023-03-01T14:55:42.466Z,8.60
2023-03-01T14:58:15.818Z,8.70
2023-03-01T15:00:56.840Z,8.60
2023-03-01T15:03:35.228Z,8.60
2023-03-01T15:06:06.871Z,8.70
2023-03-01T15:08:36.744Z,8.60
2023-03-01T15:11:19.163Z,8.60
2023-03-01T15:13:49.814Z,8.60
2023-03-01T15:16:42.421Z,8.60
2023-03-01T15:19:19.352Z,8.40
2023-03-01T15:21:50.413Z,8.30
2023-03-01T15:24:21.573Z,8.30
2023-03-01T15:26:58.800Z,8.20
2023-03-01T15:29:31.370Z,8.10
2023-03-01T15:32:25.547Z,8.00
2023-03-01T15:34:53.264Z,7.90
2023-03-01T15:37:40.963Z,7.70
2023-03-01T15:40:32.753Z,7.60
2023-03-01T15:43:06.224Z,7.70
2023-03-01T15:45:35.293Z,7.80
2023-03-01T15:48:05.635Z,7.70
2023-03-01T15:50:37.052Z,7.80
2023-03-01T15:53:12.852Z,7.60
2023-03-01T15:55:40.509Z,7.60
2023-03-01T15:58:14.898Z,7.50
2023-03-01T16:00:59.102Z,7.50
2023-03-01T16:03:27.903Z,7.60
2023-03-01T16:05:55.645Z,7.60
2023-03-01T16:08:23.344Z,7.70
2023-03-01T16:10:52.579Z,7.70
2023-03-01T16:13:20.666Z,7.70
2023-03-01T16:15:48.763Z,7.60
2023-03-01T16:18:16.583Z,7.50
2023-03-01T16:20:44.677Z,7.50
2023-03-01T16:23:12.950Z,7.30
2023-03-01T16:25:40.776Z,7.60
2023-03-01T16:28:11.764Z,7.60
2023-03-01T16:30:40.898Z,7.60
2023-03-01T16:33:26.504Z,7.60
2023-03-01T16:35:57.911Z,7.40
2023-03-01T16:38:25.678Z,7.50
2023-03-01T16:40:54.171Z,7.60
2023-03-01T16:43:21.925Z,7.60
2023-03-01T16:45:49.833Z,7.70
2023-03-01T16:48:17.553Z,7.70
2023-03-01T16:50:45.617Z,7.70
2023-03-01T16:53:13.314Z,7.80
2023-03-01T16:55:46.495Z,7.80
2023-03-01T16:58:16.600Z,7.80
2023-03-01T17:00:44.448Z,7.60
2023-03-01T17:03:12.253Z,7.50
2023-03-01T17:05:41.738Z,7.40
2023-03-01T17:08:09.564Z,7.60
2023-03-01T17:10:37.370Z,7.50
2023-03-01T17:13:05.256Z,7.50
2023-03-01T17:15:32.953Z,7.60
2023-03-01T17:18:00.601Z,7.60
2023-03-01T17:20:28.420Z,7.60
2023-03-01T17:22:56.216Z,7.50
2023-03-01T17:25:24.030Z,7.50
2023-03-01T17:27:51.766Z,7.40
2023-03-01T17:30:19.617Z,7.50
2023-03-01T17:32:47.583Z,7.50
2023-03-01T17:35:15.405Z,7.50
2023-03-01T17:37:46.658Z,7.50
2023-03-01T17:40:14.582Z,7.60
2023-03-01T17:42:42.433Z,7.70
2023-03-01T17:45:10.907Z,7.60
2023-03-01T17:47:38.672Z,7.70
2023-03-01T17:50:08.398Z,7.70
2023-03-01T17:52:36.140Z,7.80
2023-03-01T17:55:04.272Z,7.70
2023-03-01T17:57:31.961Z,7.70
2023-03-01T17:59:59.755Z,7.80
2023-03-01T18:02:27.551Z,7.80
2023-03-01T18:04:59.086Z,7.80
2023-03-01T18:07:30.368Z,7.80
2023-03-01T18:09:58.204Z,7.80
2023-03-01T18:12:26.040Z,7.70
2023-03-01T18:14:53.896Z,7.70
2023-03-01T18:17:25.804Z,7.70
2023-03-01T18:19:53.620Z,7.80
2023-03-01T18:22:21.336Z,7.70
2023-03-01T18:24:49.141Z,7.70
2023-03-01T18:27:17.267Z,7.60
2023-03-01T18:29:45.006Z,7.60
2023-03-01T18:32:12.849Z,7.70
2023-03-01T18:34:40.680Z,7.60
2023-03-01T18:37:09.989Z,7.60
2023-03-01T18:39:38.704Z,7.60
2023-03-01T18:42:06.555Z,7.60
2023-03-01T18:44:34.997Z,7.60
2023-03-01T18:47:03.049Z,7.60
2023-03-01T18:49:30.773Z,7.50
2023-03-01T18:51:58.790Z,7.50
2023-03-01T18:54:26.740Z,7.50
2023-03-01T18:56:54.523Z,7.40
2023-03-01T18:59:22.268Z,7.50
2023-03-01T19:01:50.089Z,7.60
2023-03-01T19:04:17.909Z,7.60
2023-03-01T19:06:45.620Z,7.60
2023-03-01T19:09:15.165Z,7.60
2023-03-01T19:11:42.845Z,7.50
2023-03-01T19:14:10.761Z,7.50
2023-03-01T19:16:38.553Z,7.50
2023-03-01T19:19:08.563Z,7.50
2023-03-01T19:21:36.402Z,7.50
2023-03-01T19:24:04.665Z,7.50
2023-03-01T19:26:33.081Z,7.50
2023-03-01T19:29:01.225Z,7.50
2023-03-01T19:31:31.026Z,7.40
2023-03-01T19:34:13.559Z,7.50
2023-03-01T19:36:43.271Z,7.50
2023-03-01T19:39:13.805Z,7.50
2023-03-01T19:41:42.756Z,7.60
2023-03-01T19:44:11.139Z,7.60
2023-03-01T19:46:39.466Z,7.60
2023-03-01T19:49:07.991Z,7.50
2023-03-01T19:51:39.144Z,7.50
2023-03-01T19:54:07.143Z,7.50
2023-03-01T19:56:35.553Z,7.50
2023-03-01T19:59:04.866Z,7.50
2023-03-01T20:01:35.047Z,7.50
2023-03-01T20:04:04.342Z,7.50
2023-03-01T20:06:32.521Z,7.50
2023-03-01T20:09:15.324Z,7.50
2023-03-01T20:11:48.377Z,7.50
2023-03-01T20:14:16.338Z,7.50
2023-03-01T20:16:44.076Z,7.50
2023-03-01T20:19:11.955Z,7.60
2023-03-01T20:21:39.758Z,7.60
2023-03-01T20:24:07.839Z,7.60
2023-03-01T20:26:36.760Z,7.60
2023-03-01T20:29:04.545Z,7.60
2023-03-01T20:31:32.284Z,7.60
2023-03-01T20:34:00.574Z,7.70
2023-03-01T20:36:28.564Z,7.70
2023-03-01T20:38:56.654Z,7.70
2023-03-01T20:41:26.946Z,7.70
2023-03-01T20:43:56.656Z,7.70
2023-03-01T20:46:26.824Z,7.70
2023-03-01T20:48:54.988Z,7.70
2023-03-01T20:51:22.731Z,7.70
2023-03-01T20:53:51.127Z,7.70
2023-03-01T20:56:21.422Z,7.70
2023-03-01T20:59:08.302Z,7.70
2023-03-01T21:01:38.692Z,7.70
2023-03-01T21:04:06.793Z,7.70
2023-03-01T21:06:34.963Z,7.70
2023-03-01T21:09:02.965Z,7.70
2023-03-01T21:11:30.848Z,7.80
2023-03-01T21:13:58.835Z,7.80
2023-03-01T21:16:27.238Z,7.80
2023-03-01T21:18:55.199Z,7.80
2023-03-01T21:21:24.229Z,7.90
2023-03-01T21:23:51.977Z,7.90
2023-03-01T21:26:25.177Z,7.80
2023-03-01T21:29:04.018Z,7.80
2023-03-01T21:31:35.242Z,7.90
2023-03-01T21:34:05.979Z,7.90
2023-03-01T21:36:35.959Z,7.90
2023-03-01T21:39:06.346Z,7.90
2023-03-01T21:41:36.618Z,7.90
2023-03-01T21:44:06.175Z,8.00
2023-03-01T21:46:36.959Z,7.90
2023-03-01T21:49:05.915Z,8.00
2023-03-01T21:51:33.713Z,8.00
2023-03-01T21:54:01.574Z,8.00
2023-03-01T21:56:32.288Z,8.00
2023-03-01T21:59:00.551Z,8.00
2023-03-01T22:01:28.918Z,8.00
2023-03-01T22:03:58.586Z,8.00
2023-03-01T22:06:30.043Z,8.00
2023-03-01T22:09:16.436Z,8.10
2023-03-01T22:11:50.346Z,8.00
2023-03-01T22:14:19.111Z,8.00
2023-03-01T22:16:48.828Z,8.10
2023-03-01T22:19:17.451Z,8.10
2023-03-01T22:21:49.842Z,8.10
2023-03-01T22:24:19.955Z,8.10
2023-03-01T22:26:49.219Z,8.10
2023-03-01T22:29:26.762Z,8.10
2023-03-01T22:31:56.692Z,8.10
2023-03-01T22:34:24.908Z,8.10
2023-03-01T22:36:52.931Z,8.10
2023-03-01T22:39:21.718Z,8.10
2023-03-01T22:41:50.600Z,8.10
2023-03-01T22:44:22.440Z,8.10
2023-03-01T22:46:51.185Z,8.00
2023-03-01T22:49:20.099Z,8.10
2023-03-01T22:51:48.526Z,8.10
2023-03-01T22:54:17.773Z,8.10
2023-03-01T22:56:46.750Z,8.10
2023-03-01T22:59:19.024Z,8.20
2023-03-01T23:01:48.106Z,8.10
2023-03-01T23:04:17.957Z,8.10
2023-03-01T23:06:54.448Z,8.10
2023-03-01T23:09:31.362Z,8.10
2023-03-01T23:12:01.557Z,8.20
2023-03-01T23:14:31.269Z,8.20
2023-03-01T23:17:01.630Z,8.10
2023-03-01T23:19:30.833Z,8.20
2023-03-01T23:21:58.605Z,8.20
2023-03-01T23:24:32.143Z,8.20
2023-03-01T23:27:01.680Z,8.20
2023-03-01T23:29:30.138Z,8.20
2023-03-01T23:31:58.926Z,8.20
2023-03-01T23:34:27.082Z,8.30
2023-03-01T23:36:55.708Z,8.30
2023-03-01T23:39:23.570Z,8.30
2023-03-01T23:41:51.536Z,8.30
2023-03-01T23:44:21.686Z,8.20
2023-03-01T23:46:50.349Z,8.20
2023-03-01T23:49:21.952Z,8.20
2023-03-01T23:51:49.749Z,8.20
2023-03-01T23:54:20.345Z,8.30
2023-03-01T23:56:48.374Z,8.20
2023-03-01T23:59:19.124Z,8.20
